sensor_id;sensor_type;location;lat;lon;timestamp;P1;durP1;ratioP1;P2;durP2;ratioP2
21162;SDS011;10739;52.198;20.908;2022-10-16T00:01:26;14.15;;;10.23;;
21162;SDS011;10739;52.198;20.908;2022-10-16T00:03:56;16.17;;;10.02;;
21162;SDS011;10739;52.198;20.908;2022-10-16T00:06:25;15.23;;;10.50;;
21162;SDS011;10739;52.198;20.908;2022-10-16T00:08:53;14.70;;;9.55;;
21162;SDS011;10739;52.198;20.908;2022-10-16T00:11:23;16.33;;;10.45;;
21162;SDS011;10739;52.198;20.908;2022-10-16T00:14:06;15.32;;;9.65;;
21162;SDS011;10739;52.198;20.908;2022-10-16T00:16:39;10.50;;;9.20;;
21162;SDS011;10739;52.198;20.908;2022-10-16T00:19:06;12.73;;;9.27;;
21162;SDS011;10739;52.198;20.908;2022-10-16T00:21:34;15.02;;;8.98;;
21162;SDS011;10739;52.198;20.908;2022-10-16T00:24:04;15.02;;;9.38;;
21162;SDS011;10739;52.198;20.908;2022-10-16T00:26:34;12.10;;;9.10;;
21162;SDS011;10739;52.198;20.908;2022-10-16T00:29:03;16.88;;;10.15;;
21162;SDS011;10739;52.198;20.908;2022-10-16T00:31:30;15.25;;;10.18;;
21162;SDS011;10739;52.198;20.908;2022-10-16T00:33:57;16.00;;;10.77;;
21162;SDS011;10739;52.198;20.908;2022-10-16T00:36:24;18.85;;;12.27;;
21162;SDS011;10739;52.198;20.908;2022-10-16T00:38:51;19.80;;;12.15;;
21162;SDS011;10739;52.198;20.908;2022-10-16T00:41:21;19.90;;;12.63;;
21162;SDS011;10739;52.198;20.908;2022-10-16T00:43:51;21.27;;;13.93;;
21162;SDS011;10739;52.198;20.908;2022-10-16T00:46:23;21.27;;;12.75;;
21162;SDS011;10739;52.198;20.908;2022-10-16T00:51:34;20.73;;;14.13;;
21162;SDS011;10739;52.198;20.908;2022-10-16T00:54:39;20.88;;;14.90;;
21162;SDS011;10739;52.198;20.908;2022-10-16T00:57:03;17.88;;;14.40;;
21162;SDS011;10739;52.198;20.908;2022-10-16T00:59:32;19.60;;;13.65;;
21162;SDS011;10739;52.198;20.908;2022-10-16T01:02:06;20.05;;;14.48;;
21162;SDS011;10739;52.198;20.908;2022-10-16T01:04:40;19.52;;;14.02;;
21162;SDS011;10739;52.198;20.908;2022-10-16T01:12:40;19.33;;;14.30;;
21162;SDS011;10739;52.198;20.908;2022-10-16T01:18:18;18.10;;;13.50;;
21162;SDS011;10739;52.198;20.908;2022-10-16T01:21:06;23.83;;;14.98;;
21162;SDS011;10739;52.198;20.908;2022-10-16T01:23:48;20.80;;;14.20;;
21162;SDS011;10739;52.198;20.908;2022-10-16T01:30:02;21.52;;;14.25;;
21162;SDS011;10739;52.198;20.908;2022-10-16T01:32:49;21.50;;;14.57;;
21162;SDS011;10739;52.198;20.908;2022-10-16T01:35:48;21.15;;;14.13;;
21162;SDS011;10739;52.198;20.908;2022-10-16T01:38:22;23.90;;;14.95;;
21162;SDS011;10739;52.198;20.908;2022-10-16T01:41:07;21.20;;;14.68;;
21162;SDS011;10739;52.198;20.908;2022-10-16T01:43:45;22.85;;;15.35;;
21162;SDS011;10739;52.198;20.908;2022-10-16T01:46:34;23.70;;;15.20;;
21162;SDS011;10739;52.198;20.908;2022-10-16T01:49:06;22.38;;;15.20;;
21162;SDS011;10739;52.198;20.908;2022-10-16T01:51:35;23.98;;;16.17;;
21162;SDS011;10739;52.198;20.908;2022-10-16T01:54:04;24.73;;;15.93;;
21162;SDS011;10739;52.198;20.908;2022-10-16T01:56:33;23.02;;;16.05;;
21162;SDS011;10739;52.198;20.908;2022-10-16T01:59:04;20.90;;;15.43;;
21162;SDS011;10739;52.198;20.908;2022-10-16T02:01:37;20.52;;;15.52;;
21162;SDS011;10739;52.198;20.908;2022-10-16T02:04:12;22.63;;;15.60;;
21162;SDS011;10739;52.198;20.908;2022-10-16T02:06:46;23.10;;;16.38;;
21162;SDS011;10739;52.198;20.908;2022-10-16T02:09:13;24.08;;;16.88;;
21162;SDS011;10739;52.198;20.908;2022-10-16T02:11:42;21.77;;;16.30;;
21162;SDS011;10739;52.198;20.908;2022-10-16T02:14:10;24.50;;;17.17;;
21162;SDS011;10739;52.198;20.908;2022-10-16T02:16:40;20.92;;;15.30;;
21162;SDS011;10739;52.198;20.908;2022-10-16T02:19:09;21.15;;;16.20;;
21162;SDS011;10739;52.198;20.908;2022-10-16T02:21:43;20.00;;;15.73;;
21162;SDS011;10739;52.198;20.908;2022-10-16T02:27:41;24.25;;;17.08;;
21162;SDS011;10739;52.198;20.908;2022-10-16T02:30:39;23.83;;;16.20;;
21162;SDS011;10739;52.198;20.908;2022-10-16T02:33:14;27.20;;;16.55;;
21162;SDS011;10739;52.198;20.908;2022-10-16T02:35:43;27.63;;;18.17;;
21162;SDS011;10739;52.198;20.908;2022-10-16T02:38:14;24.20;;;18.05;;
21162;SDS011;10739;52.198;20.908;2022-10-16T02:40:42;24.35;;;17.58;;
21162;SDS011;10739;52.198;20.908;2022-10-16T02:43:09;25.35;;;17.38;;
21162;SDS011;10739;52.198;20.908;2022-10-16T02:45:36;28.20;;;18.30;;
21162;SDS011;10739;52.198;20.908;2022-10-16T02:48:03;23.45;;;17.30;;
21162;SDS011;10739;52.198;20.908;2022-10-16T02:50:29;25.42;;;17.98;;
21162;SDS011;10739;52.198;20.908;2022-10-16T02:52:56;28.00;;;18.25;;
21162;SDS011;10739;52.198;20.908;2022-10-16T02:55:22;23.42;;;17.63;;
21162;SDS011;10739;52.198;20.908;2022-10-16T02:57:48;23.80;;;17.83;;
21162;SDS011;10739;52.198;20.908;2022-10-16T03:00:15;27.92;;;18.13;;
21162;SDS011;10739;52.198;20.908;2022-10-16T03:02:43;24.77;;;18.33;;
21162;SDS011;10739;52.198;20.908;2022-10-16T03:05:10;25.45;;;17.83;;
21162;SDS011;10739;52.198;20.908;2022-10-16T03:07:36;22.17;;;17.92;;
21162;SDS011;10739;52.198;20.908;2022-10-16T03:10:02;25.20;;;17.42;;
21162;SDS011;10739;52.198;20.908;2022-10-16T03:12:29;26.48;;;19.40;;
21162;SDS011;10739;52.198;20.908;2022-10-16T03:14:55;24.13;;;16.15;;
21162;SDS011;10739;52.198;20.908;2022-10-16T03:17:22;23.52;;;17.17;;
21162;SDS011;10739;52.198;20.908;2022-10-16T03:19:49;24.67;;;18.25;;
21162;SDS011;10739;52.198;20.908;2022-10-16T03:22:16;26.75;;;16.80;;
21162;SDS011;10739;52.198;20.908;2022-10-16T03:24:42;24.65;;;17.92;;
21162;SDS011;10739;52.198;20.908;2022-10-16T03:27:08;27.08;;;18.33;;
21162;SDS011;10739;52.198;20.908;2022-10-16T03:29:34;24.23;;;16.52;;
21162;SDS011;10739;52.198;20.908;2022-10-16T03:32:00;24.80;;;18.00;;
21162;SDS011;10739;52.198;20.908;2022-10-16T03:34:27;24.48;;;17.90;;
21162;SDS011;10739;52.198;20.908;2022-10-16T03:36:53;25.83;;;17.60;;
21162;SDS011;10739;52.198;20.908;2022-10-16T03:39:19;25.77;;;17.85;;
21162;SDS011;10739;52.198;20.908;2022-10-16T03:41:46;28.45;;;17.52;;
21162;SDS011;10739;52.198;20.908;2022-10-16T03:44:12;25.27;;;17.73;;
21162;SDS011;10739;52.198;20.908;2022-10-16T03:46:39;28.35;;;17.10;;
21162;SDS011;10739;52.198;20.908;2022-10-16T03:49:05;22.58;;;17.00;;
21162;SDS011;10739;52.198;20.908;2022-10-16T03:51:32;27.20;;;16.98;;
21162;SDS011;10739;52.198;20.908;2022-10-16T03:53:58;25.67;;;17.77;;
21162;SDS011;10739;52.198;20.908;2022-10-16T03:56:24;28.20;;;16.58;;
21162;SDS011;10739;52.198;20.908;2022-10-16T03:58:50;29.67;;;16.92;;
21162;SDS011;10739;52.198;20.908;2022-10-16T04:01:17;24.25;;;16.92;;
21162;SDS011;10739;52.198;20.908;2022-10-16T04:03:42;23.42;;;16.77;;
21162;SDS011;10739;52.198;20.908;2022-10-16T04:06:09;23.73;;;17.23;;
21162;SDS011;10739;52.198;20.908;2022-10-16T04:08:35;27.23;;;17.63;;
21162;SDS011;10739;52.198;20.908;2022-10-16T04:11:02;26.50;;;18.00;;
21162;SDS011;10739;52.198;20.908;2022-10-16T04:13:29;23.45;;;17.42;;
21162;SDS011;10739;52.198;20.908;2022-10-16T04:15:55;22.15;;;16.15;;
21162;SDS011;10739;52.198;20.908;2022-10-16T04:18:21;23.52;;;16.52;;
21162;SDS011;10739;52.198;20.908;2022-10-16T04:20:48;25.27;;;17.83;;
21162;SDS011;10739;52.198;20.908;2022-10-16T04:23:14;24.92;;;17.35;;
21162;SDS011;10739;52.198;20.908;2022-10-16T04:25:40;26.98;;;17.70;;
21162;SDS011;10739;52.198;20.908;2022-10-16T04:28:06;24.40;;;17.98;;
21162;SDS011;10739;52.198;20.908;2022-10-16T04:30:33;24.13;;;16.05;;
21162;SDS011;10739;52.198;20.908;2022-10-16T04:32:59;24.27;;;16.70;;
21162;SDS011;10739;52.198;20.908;2022-10-16T04:35:25;25.27;;;17.13;;
21162;SDS011;10739;52.198;20.908;2022-10-16T04:37:51;23.40;;;17.00;;
21162;SDS011;10739;52.198;20.908;2022-10-16T04:40:17;25.33;;;16.88;;
21162;SDS011;10739;52.198;20.908;2022-10-16T04:42:43;21.88;;;16.52;;
21162;SDS011;10739;52.198;20.908;2022-10-16T04:45:09;25.05;;;16.95;;
21162;SDS011;10739;52.198;20.908;2022-10-16T04:47:36;24.77;;;16.52;;
21162;SDS011;10739;52.198;20.908;2022-10-16T04:50:02;23.23;;;16.73;;
21162;SDS011;10739;52.198;20.908;2022-10-16T04:52:28;23.15;;;17.90;;
21162;SDS011;10739;52.198;20.908;2022-10-16T04:54:57;24.52;;;16.77;;
21162;SDS011;10739;52.198;20.908;2022-10-16T04:57:28;27.27;;;16.48;;
21162;SDS011;10739;52.198;20.908;2022-10-16T04:59:56;27.35;;;17.15;;
21162;SDS011;10739;52.198;20.908;2022-10-16T05:02:22;22.90;;;16.85;;
21162;SDS011;10739;52.198;20.908;2022-10-16T05:04:48;24.35;;;16.83;;
21162;SDS011;10739;52.198;20.908;2022-10-16T05:07:14;27.83;;;18.00;;
21162;SDS011;10739;52.198;20.908;2022-10-16T05:09:41;26.30;;;16.88;;
21162;SDS011;10739;52.198;20.908;2022-10-16T05:12:07;24.55;;;18.52;;
21162;SDS011;10739;52.198;20.908;2022-10-16T05:14:33;25.48;;;17.38;;
21162;SDS011;10739;52.198;20.908;2022-10-16T05:16:59;25.67;;;18.23;;
21162;SDS011;10739;52.198;20.908;2022-10-16T05:19:26;29.17;;;19.05;;
21162;SDS011;10739;52.198;20.908;2022-10-16T05:21:52;26.08;;;17.67;;
21162;SDS011;10739;52.198;20.908;2022-10-16T05:24:18;25.02;;;18.50;;
21162;SDS011;10739;52.198;20.908;2022-10-16T05:26:44;26.10;;;19.02;;
21162;SDS011;10739;52.198;20.908;2022-10-16T05:29:10;22.98;;;17.10;;
21162;SDS011;10739;52.198;20.908;2022-10-16T05:31:37;24.77;;;17.08;;
21162;SDS011;10739;52.198;20.908;2022-10-16T05:34:03;25.00;;;17.83;;
21162;SDS011;10739;52.198;20.908;2022-10-16T05:36:29;24.70;;;17.98;;
21162;SDS011;10739;52.198;20.908;2022-10-16T05:38:55;27.20;;;17.55;;
21162;SDS011;10739;52.198;20.908;2022-10-16T05:41:21;27.38;;;18.73;;
21162;SDS011;10739;52.198;20.908;2022-10-16T05:43:50;24.85;;;17.90;;
21162;SDS011;10739;52.198;20.908;2022-10-16T05:46:17;25.98;;;18.48;;
21162;SDS011;10739;52.198;20.908;2022-10-16T05:48:44;24.42;;;17.67;;
21162;SDS011;10739;52.198;20.908;2022-10-16T05:51:11;29.08;;;19.17;;
21162;SDS011;10739;52.198;20.908;2022-10-16T05:53:40;27.20;;;19.13;;
21162;SDS011;10739;52.198;20.908;2022-10-16T05:56:08;24.25;;;17.08;;
21162;SDS011;10739;52.198;20.908;2022-10-16T05:58:37;23.20;;;17.98;;
21162;SDS011;10739;52.198;20.908;2022-10-16T06:01:38;26.17;;;18.25;;
21162;SDS011;10739;52.198;20.908;2022-10-16T06:03:58;25.08;;;17.38;;
21162;SDS011;10739;52.198;20.908;2022-10-16T06:06:25;25.17;;;18.45;;
21162;SDS011;10739;52.198;20.908;2022-10-16T06:08:53;30.85;;;18.85;;
21162;SDS011;10739;52.198;20.908;2022-10-16T06:11:22;27.58;;;18.33;;
21162;SDS011;10739;52.198;20.908;2022-10-16T06:13:54;26.13;;;17.90;;
21162;SDS011;10739;52.198;20.908;2022-10-16T06:16:24;27.65;;;17.35;;
21162;SDS011;10739;52.198;20.908;2022-10-16T06:18:54;22.38;;;16.95;;
21162;SDS011;10739;52.198;20.908;2022-10-16T06:21:22;23.17;;;18.13;;
21162;SDS011;10739;52.198;20.908;2022-10-16T06:23:50;25.70;;;16.52;;
21162;SDS011;10739;52.198;20.908;2022-10-16T06:26:18;23.80;;;16.25;;
21162;SDS011;10739;52.198;20.908;2022-10-16T06:28:48;26.10;;;17.08;;
21162;SDS011;10739;52.198;20.908;2022-10-16T06:31:15;24.50;;;16.92;;
21162;SDS011;10739;52.198;20.908;2022-10-16T06:33:43;26.85;;;16.88;;
21162;SDS011;10739;52.198;20.908;2022-10-16T06:36:11;24.13;;;17.05;;
21162;SDS011;10739;52.198;20.908;2022-10-16T06:38:42;22.27;;;16.88;;
21162;SDS011;10739;52.198;20.908;2022-10-16T06:41:13;25.80;;;16.48;;
21162;SDS011;10739;52.198;20.908;2022-10-16T06:43:46;26.85;;;16.25;;
21162;SDS011;10739;52.198;20.908;2022-10-16T06:46:14;21.77;;;15.68;;
21162;SDS011;10739;52.198;20.908;2022-10-16T06:48:43;21.85;;;16.00;;
21162;SDS011;10739;52.198;20.908;2022-10-16T06:51:13;21.20;;;15.80;;
21162;SDS011;10739;52.198;20.908;2022-10-16T06:53:46;21.40;;;16.35;;
21162;SDS011;10739;52.198;20.908;2022-10-16T06:56:19;19.92;;;15.15;;
21162;SDS011;10739;52.198;20.908;2022-10-16T06:58:48;21.17;;;14.38;;
21162;SDS011;10739;52.198;20.908;2022-10-16T07:01:15;22.17;;;14.02;;
21162;SDS011;10739;52.198;20.908;2022-10-16T07:03:43;18.92;;;14.25;;
21162;SDS011;10739;52.198;20.908;2022-10-16T07:06:12;17.38;;;13.88;;
21162;SDS011;10739;52.198;20.908;2022-10-16T07:11:12;23.20;;;14.90;;
21162;SDS011;10739;52.198;20.908;2022-10-16T07:13:43;20.70;;;14.95;;
21162;SDS011;10739;52.198;20.908;2022-10-16T07:16:11;21.00;;;14.50;;
21162;SDS011;10739;52.198;20.908;2022-10-16T07:18:40;28.35;;;14.90;;
21162;SDS011;10739;52.198;20.908;2022-10-16T07:21:11;20.30;;;15.15;;
21162;SDS011;10739;52.198;20.908;2022-10-16T07:23:41;18.13;;;14.57;;
21162;SDS011;10739;52.198;20.908;2022-10-16T07:26:07;23.85;;;15.10;;
21162;SDS011;10739;52.198;20.908;2022-10-16T07:28:35;23.65;;;15.50;;
21162;SDS011;10739;52.198;20.908;2022-10-16T07:31:05;21.98;;;15.18;;
21162;SDS011;10739;52.198;20.908;2022-10-16T07:33:36;23.35;;;15.68;;
21162;SDS011;10739;52.198;20.908;2022-10-16T07:36:04;19.77;;;14.82;;
21162;SDS011;10739;52.198;20.908;2022-10-16T07:38:31;21.63;;;15.02;;
21162;SDS011;10739;52.198;20.908;2022-10-16T07:41:01;22.77;;;13.55;;
21162;SDS011;10739;52.198;20.908;2022-10-16T07:43:33;20.60;;;12.98;;
21162;SDS011;10739;52.198;20.908;2022-10-16T07:45:59;19.55;;;13.93;;
21162;SDS011;10739;52.198;20.908;2022-10-16T07:48:27;21.00;;;12.98;;
21162;SDS011;10739;52.198;20.908;2022-10-16T07:50:59;21.08;;;12.95;;
21162;SDS011;10739;52.198;20.908;2022-10-16T07:53:30;17.98;;;12.57;;
21162;SDS011;10739;52.198;20.908;2022-10-16T07:55:58;18.65;;;12.93;;
21162;SDS011;10739;52.198;20.908;2022-10-16T08:00:58;15.27;;;11.68;;
21162;SDS011;10739;52.198;20.908;2022-10-16T08:03:33;16.63;;;11.80;;
21162;SDS011;10739;52.198;20.908;2022-10-16T08:06:01;14.20;;;11.43;;
21162;SDS011;10739;52.198;20.908;2022-10-16T08:08:28;13.85;;;10.77;;
21162;SDS011;10739;52.198;20.908;2022-10-16T08:10:55;14.65;;;10.40;;
21162;SDS011;10739;52.198;20.908;2022-10-16T08:13:22;16.92;;;10.85;;
21162;SDS011;10739;52.198;20.908;2022-10-16T08:15:48;14.27;;;10.52;;
21162;SDS011;10739;52.198;20.908;2022-10-16T08:18:14;14.23;;;10.77;;
21162;SDS011;10739;52.198;20.908;2022-10-16T08:20:42;14.60;;;10.20;;
21162;SDS011;10739;52.198;20.908;2022-10-16T08:23:11;13.70;;;10.02;;
21162;SDS011;10739;52.198;20.908;2022-10-16T08:25:38;14.85;;;10.65;;
21162;SDS011;10739;52.198;20.908;2022-10-16T08:28:07;12.98;;;10.02;;
21162;SDS011;10739;52.198;20.908;2022-10-16T08:30:36;13.60;;;10.65;;
21162;SDS011;10739;52.198;20.908;2022-10-16T08:33:02;16.48;;;11.45;;
21162;SDS011;10739;52.198;20.908;2022-10-16T08:35:29;15.20;;;11.40;;
21162;SDS011;10739;52.198;20.908;2022-10-16T08:37:55;15.18;;;11.77;;
21162;SDS011;10739;52.198;20.908;2022-10-16T08:48:47;13.55;;;10.73;;
21162;SDS011;10739;52.198;20.908;2022-10-16T08:51:19;14.43;;;11.13;;
21162;SDS011;10739;52.198;20.908;2022-10-16T08:54:03;18.42;;;10.50;;
21162;SDS011;10739;52.198;20.908;2022-10-16T08:56:56;16.10;;;10.35;;
21162;SDS011;10739;52.198;20.908;2022-10-16T08:59:33;14.80;;;9.52;;
21162;SDS011;10739;52.198;20.908;2022-10-16T09:01:59;17.83;;;10.32;;
21162;SDS011;10739;52.198;20.908;2022-10-16T09:07:49;13.48;;;10.32;;
21162;SDS011;10739;52.198;20.908;2022-10-16T09:10:44;13.23;;;10.07;;
21162;SDS011;10739;52.198;20.908;2022-10-16T09:13:50;14.13;;;10.50;;
21162;SDS011;10739;52.198;20.908;2022-10-16T09:16:38;19.00;;;11.13;;
21162;SDS011;10739;52.198;20.908;2022-10-16T09:19:17;18.80;;;11.10;;
21162;SDS011;10739;52.198;20.908;2022-10-16T09:21:56;15.15;;;10.63;;
21162;SDS011;10739;52.198;20.908;2022-10-16T09:24:36;13.68;;;10.95;;
21162;SDS011;10739;52.198;20.908;2022-10-16T09:27:02;19.85;;;9.93;;
21162;SDS011;10739;52.198;20.908;2022-10-16T09:29:29;17.77;;;10.50;;
21162;SDS011;10739;52.198;20.908;2022-10-16T09:31:55;12.65;;;10.07;;
21162;SDS011;10739;52.198;20.908;2022-10-16T09:34:53;17.52;;;10.30;;
21162;SDS011;10739;52.198;20.908;2022-10-16T09:37:22;16.45;;;10.38;;
21162;SDS011;10739;52.198;20.908;2022-10-16T09:39:51;12.70;;;10.00;;
21162;SDS011;10739;52.198;20.908;2022-10-16T09:42:30;12.45;;;10.30;;
21162;SDS011;10739;52.198;20.908;2022-10-16T09:45:00;15.90;;;10.15;;
21162;SDS011;10739;52.198;20.908;2022-10-16T09:47:28;13.18;;;10.32;;
21162;SDS011;10739;52.198;20.908;2022-10-16T09:50:00;13.25;;;10.35;;
21162;SDS011;10739;52.198;20.908;2022-10-16T09:52:47;13.45;;;10.93;;
21162;SDS011;10739;52.198;20.908;2022-10-16T09:55:14;16.75;;;10.88;;
21162;SDS011;10739;52.198;20.908;2022-10-16T09:57:53;14.43;;;10.70;;
21162;SDS011;10739;52.198;20.908;2022-10-16T10:00:20;13.13;;;10.38;;
21162;SDS011;10739;52.198;20.908;2022-10-16T10:02:49;11.80;;;10.40;;
21162;SDS011;10739;52.198;20.908;2022-10-16T10:05:26;17.17;;;10.80;;
21162;SDS011;10739;52.198;20.908;2022-10-16T10:07:58;16.02;;;10.68;;
21162;SDS011;10739;52.198;20.908;2022-10-16T10:10:36;13.23;;;10.27;;
21162;SDS011;10739;52.198;20.908;2022-10-16T10:13:21;13.90;;;10.05;;
21162;SDS011;10739;52.198;20.908;2022-10-16T10:15:51;13.63;;;10.50;;
21162;SDS011;10739;52.198;20.908;2022-10-16T10:18:19;15.63;;;10.38;;
21162;SDS011;10739;52.198;20.908;2022-10-16T10:20:58;15.95;;;9.88;;
21162;SDS011;10739;52.198;20.908;2022-10-16T10:23:27;15.35;;;10.23;;
21162;SDS011;10739;52.198;20.908;2022-10-16T10:25:59;16.17;;;10.93;;
21162;SDS011;10739;52.198;20.908;2022-10-16T10:32:03;15.93;;;10.63;;
21162;SDS011;10739;52.198;20.908;2022-10-16T10:35:15;15.38;;;11.07;;
21162;SDS011;10739;52.198;20.908;2022-10-16T10:44:30;16.50;;;10.20;;
21162;SDS011;10739;52.198;20.908;2022-10-16T10:50:19;15.18;;;10.52;;
21162;SDS011;10739;52.198;20.908;2022-10-16T10:53:36;12.15;;;10.25;;
21162;SDS011;10739;52.198;20.908;2022-10-16T10:59:32;14.77;;;10.70;;
21162;SDS011;10739;52.198;20.908;2022-10-16T11:11:03;15.07;;;10.18;;
21162;SDS011;10739;52.198;20.908;2022-10-16T11:16:13;12.07;;;9.50;;
21162;SDS011;10739;52.198;20.908;2022-10-16T11:18:47;16.55;;;9.88;;
21162;SDS011;10739;52.198;20.908;2022-10-16T11:21:49;12.70;;;9.90;;
21162;SDS011;10739;52.198;20.908;2022-10-16T11:27:50;16.77;;;10.15;;
21162;SDS011;10739;52.198;20.908;2022-10-16T11:30:33;15.52;;;10.25;;
21162;SDS011;10739;52.198;20.908;2022-10-16T11:33:15;11.95;;;9.85;;
21162;SDS011;10739;52.198;20.908;2022-10-16T11:41:37;14.82;;;9.27;;
21162;SDS011;10739;52.198;20.908;2022-10-16T11:49:50;10.73;;;8.80;;
21162;SDS011;10739;52.198;20.908;2022-10-16T11:52:55;15.05;;;9.13;;
21162;SDS011;10739;52.198;20.908;2022-10-16T11:55:36;10.77;;;9.18;;
21162;SDS011;10739;52.198;20.908;2022-10-16T12:09:04;14.05;;;9.07;;
21162;SDS011;10739;52.198;20.908;2022-10-16T12:11:35;11.80;;;8.32;;
21162;SDS011;10739;52.198;20.908;2022-10-16T12:16:39;11.00;;;8.77;;
21162;SDS011;10739;52.198;20.908;2022-10-16T12:19:21;9.77;;;8.13;;
21162;SDS011;10739;52.198;20.908;2022-10-16T12:21:50;9.43;;;8.38;;
21162;SDS011;10739;52.198;20.908;2022-10-16T12:24:21;10.40;;;8.07;;
21162;SDS011;10739;52.198;20.908;2022-10-16T12:29:38;11.77;;;8.52;;
21162;SDS011;10739;52.198;20.908;2022-10-16T12:35:00;14.05;;;9.32;;
21162;SDS011;10739;52.198;20.908;2022-10-16T12:37:35;15.77;;;9.20;;
21162;SDS011;10739;52.198;20.908;2022-10-16T12:40:12;13.48;;;9.38;;
21162;SDS011;10739;52.198;20.908;2022-10-16T12:42:52;11.13;;;9.20;;
21162;SDS011;10739;52.198;20.908;2022-10-16T12:45:26;13.38;;;9.30;;
21162;SDS011;10739;52.198;20.908;2022-10-16T12:48:00;10.25;;;8.70;;
21162;SDS011;10739;52.198;20.908;2022-10-16T12:53:01;11.60;;;8.63;;
21162;SDS011;10739;52.198;20.908;2022-10-16T12:59:13;11.48;;;8.30;;
21162;SDS011;10739;52.198;20.908;2022-10-16T13:07:03;11.55;;;9.13;;
21162;SDS011;10739;52.198;20.908;2022-10-16T13:09:54;12.02;;;8.35;;
21162;SDS011;10739;52.198;20.908;2022-10-16T13:15:19;14.57;;;8.18;;
21162;SDS011;10739;52.198;20.908;2022-10-16T13:21:22;10.35;;;8.18;;
21162;SDS011;10739;52.198;20.908;2022-10-16T13:24:22;10.52;;;8.55;;
21162;SDS011;10739;52.198;20.908;2022-10-16T13:26:57;13.32;;;8.20;;
21162;SDS011;10739;52.198;20.908;2022-10-16T13:30:07;11.63;;;8.98;;
21162;SDS011;10739;52.198;20.908;2022-10-16T13:32:43;11.43;;;8.70;;
21162;SDS011;10739;52.198;20.908;2022-10-16T13:35:20;12.25;;;8.70;;
21162;SDS011;10739;52.198;20.908;2022-10-16T13:40:51;15.05;;;9.05;;
21162;SDS011;10739;52.198;20.908;2022-10-16T13:43:24;11.60;;;8.50;;
21162;SDS011;10739;52.198;20.908;2022-10-16T13:46:06;12.57;;;8.73;;
21162;SDS011;10739;52.198;20.908;2022-10-16T13:48:55;10.38;;;8.80;;
21162;SDS011;10739;52.198;20.908;2022-10-16T13:51:29;14.77;;;8.73;;
21162;SDS011;10739;52.198;20.908;2022-10-16T13:53:57;10.35;;;8.70;;
21162;SDS011;10739;52.198;20.908;2022-10-16T13:56:25;11.55;;;8.13;;
21162;SDS011;10739;52.198;20.908;2022-10-16T14:01:43;12.65;;;8.88;;
21162;SDS011;10739;52.198;20.908;2022-10-16T14:04:10;13.20;;;8.13;;
21162;SDS011;10739;52.198;20.908;2022-10-16T14:06:40;11.68;;;8.82;;
21162;SDS011;10739;52.198;20.908;2022-10-16T14:11:56;12.50;;;8.50;;
21162;SDS011;10739;52.198;20.908;2022-10-16T14:14:30;10.63;;;8.50;;
21162;SDS011;10739;52.198;20.908;2022-10-16T14:17:06;8.60;;;7.70;;
21162;SDS011;10739;52.198;20.908;2022-10-16T14:19:56;9.90;;;8.68;;
21162;SDS011;10739;52.198;20.908;2022-10-16T14:22:30;15.57;;;9.52;;
21162;SDS011;10739;52.198;20.908;2022-10-16T14:30:55;13.05;;;9.13;;
21162;SDS011;10739;52.198;20.908;2022-10-16T14:33:30;13.60;;;8.43;;
21162;SDS011;10739;52.198;20.908;2022-10-16T14:38:36;14.02;;;9.30;;
21162;SDS011;10739;52.198;20.908;2022-10-16T14:41:05;13.45;;;9.50;;
21162;SDS011;10739;52.198;20.908;2022-10-16T14:43:37;13.80;;;9.23;;
21162;SDS011;10739;52.198;20.908;2022-10-16T14:46:14;11.55;;;9.10;;
21162;SDS011;10739;52.198;20.908;2022-10-16T14:48:59;12.13;;;9.32;;
21162;SDS011;10739;52.198;20.908;2022-10-16T14:51:38;12.40;;;8.98;;
21162;SDS011;10739;52.198;20.908;2022-10-16T14:54:17;16.65;;;9.45;;
21162;SDS011;10739;52.198;20.908;2022-10-16T14:56:46;10.43;;;9.32;;
21162;SDS011;10739;52.198;20.908;2022-10-16T14:59:25;16.00;;;10.07;;
21162;SDS011;10739;52.198;20.908;2022-10-16T15:01:57;11.82;;;8.82;;
21162;SDS011;10739;52.198;20.908;2022-10-16T15:04:23;12.90;;;9.85;;
21162;SDS011;10739;52.198;20.908;2022-10-16T15:06:50;12.63;;;9.40;;
21162;SDS011;10739;52.198;20.908;2022-10-16T15:09:16;12.60;;;8.90;;
21162;SDS011;10739;52.198;20.908;2022-10-16T15:11:42;15.00;;;9.02;;
21162;SDS011;10739;52.198;20.908;2022-10-16T15:14:12;10.57;;;9.48;;
21162;SDS011;10739;52.198;20.908;2022-10-16T15:16:38;10.52;;;9.38;;
21162;SDS011;10739;52.198;20.908;2022-10-16T15:19:05;16.02;;;9.60;;
21162;SDS011;10739;52.198;20.908;2022-10-16T15:21:31;16.45;;;10.45;;
21162;SDS011;10739;52.198;20.908;2022-10-16T15:23:58;14.02;;;10.00;;
21162;SDS011;10739;52.198;20.908;2022-10-16T15:26:26;15.38;;;10.27;;
21162;SDS011;10739;52.198;20.908;2022-10-16T15:28:54;13.75;;;10.52;;
21162;SDS011;10739;52.198;20.908;2022-10-16T15:31:21;13.55;;;10.07;;
21162;SDS011;10739;52.198;20.908;2022-10-16T15:33:49;16.23;;;9.80;;
21162;SDS011;10739;52.198;20.908;2022-10-16T15:36:26;12.32;;;10.43;;
21162;SDS011;10739;52.198;20.908;2022-10-16T15:39:04;17.30;;;10.50;;
21162;SDS011;10739;52.198;20.908;2022-10-16T15:41:36;12.93;;;10.70;;
21162;SDS011;10739;52.198;20.908;2022-10-16T15:44:02;14.68;;;10.50;;
21162;SDS011;10739;52.198;20.908;2022-10-16T15:46:28;14.10;;;10.85;;
21162;SDS011;10739;52.198;20.908;2022-10-16T15:48:57;13.27;;;10.68;;
21162;SDS011;10739;52.198;20.908;2022-10-16T15:51:24;14.70;;;10.85;;
21162;SDS011;10739;52.198;20.908;2022-10-16T15:53:57;15.85;;;11.63;;
21162;SDS011;10739;52.198;20.908;2022-10-16T15:56:27;14.10;;;10.80;;
21162;SDS011;10739;52.198;20.908;2022-10-16T15:58:54;15.00;;;10.70;;
21162;SDS011;10739;52.198;20.908;2022-10-16T16:01:21;13.15;;;10.93;;
21162;SDS011;10739;52.198;20.908;2022-10-16T16:03:47;14.82;;;10.82;;
21162;SDS011;10739;52.198;20.908;2022-10-16T16:06:21;18.98;;;11.32;;
21162;SDS011;10739;52.198;20.908;2022-10-16T16:08:50;15.25;;;11.55;;
21162;SDS011;10739;52.198;20.908;2022-10-16T16:11:17;20.42;;;11.45;;
21162;SDS011;10739;52.198;20.908;2022-10-16T16:13:44;16.90;;;11.40;;
21162;SDS011;10739;52.198;20.908;2022-10-16T16:16:11;16.35;;;12.05;;
21162;SDS011;10739;52.198;20.908;2022-10-16T16:18:41;17.83;;;11.68;;
21162;SDS011;10739;52.198;20.908;2022-10-16T16:21:09;24.20;;;12.20;;
21162;SDS011;10739;52.198;20.908;2022-10-16T16:23:37;18.48;;;12.90;;
21162;SDS011;10739;52.198;20.908;2022-10-16T16:28:51;18.45;;;12.48;;
21162;SDS011;10739;52.198;20.908;2022-10-16T16:31:19;17.48;;;12.48;;
21162;SDS011;10739;52.198;20.908;2022-10-16T16:33:50;18.25;;;13.85;;
21162;SDS011;10739;52.198;20.908;2022-10-16T16:36:16;20.90;;;13.60;;
21162;SDS011;10739;52.198;20.908;2022-10-16T16:38:44;18.15;;;12.50;;
21162;SDS011;10739;52.198;20.908;2022-10-16T16:41:15;19.30;;;12.57;;
21162;SDS011;10739;52.198;20.908;2022-10-16T16:43:48;19.55;;;13.45;;
21162;SDS011;10739;52.198;20.908;2022-10-16T16:46:16;17.33;;;12.40;;
21162;SDS011;10739;52.198;20.908;2022-10-16T16:48:44;22.00;;;13.95;;
21162;SDS011;10739;52.198;20.908;2022-10-16T16:51:15;25.20;;;12.60;;